Time;durP1;ratioP1;P1;durP2;ratioP2;P2;SDS_P1;SDS_P2;PMS_P1;PMS_P2;Temp;Humidity;BMP_temperature;BMP_pressure;BME280_temperature;BME280_humidity;BME280_pressure;Samples;Min_cycle;Max_cycle;Signal;HPM_P1;HPM_P2
2023/02/12 00:01:07;;;;;;;58.90;22.13;;;;;;;2.30;65.29;97428.00;5067231;28;20409;-69
2023/02/12 00:03:33;;;;;;;60.45;22.38;;;;;;;2.38;64.97;97427.56;5071048;28;20053;-69
2023/02/12 00:06:00;;;;;;;40.15;15.75;;;;;;;2.27;64.67;97430.78;5071815;28;20067;-68
2023/02/12 00:08:26;;;;;;;53.15;21.83;;;;;;;2.10;65.16;97432.53;5069712;28;20516;-69
2023/02/12 00:10:51;;;;;;;52.63;21.95;;;;;;;2.05;65.86;97429.28;5069608;28;20038;-68
2023/02/12 00:13:16;;;;;;;42.45;19.55;;;;;;;2.03;65.75;97427.66;5066968;28;20300;-69
2023/02/12 00:15:42;;;;;;;63.95;20.85;;;;;;;2.09;65.39;97430.81;5068832;28;20047;-68
2023/02/12 00:18:08;;;;;;;39.78;16.35;;;;;;;1.92;66.02;97428.22;5071000;28;20061;-68
2023/02/12 00:20:33;;;;;;;60.03;20.58;;;;;;;1.92;65.39;97426.44;5065595;28;20065;-68
2023/02/12 00:22:59;;;;;;;58.92;21.80;;;;;;;1.99;66.01;97426.97;5064581;28;20060;-68
2023/02/12 00:25:24;;;;;;;58.50;21.23;;;;;;;2.12;65.68;97432.44;5069022;28;20061;-68
2023/02/12 00:27:49;;;;;;;46.08;22.05;;;;;;;2.47;65.50;97436.75;5070287;28;20516;-69
2023/02/12 00:30:15;;;;;;;77.03;23.42;;;;;;;2.90;64.59;97431.78;5068315;28;20084;-68
2023/02/12 00:32:41;;;;;;;148.23;22.67;;;;;;;3.39;64.05;97439.66;5066369;28;20076;-69
2023/02/12 00:35:06;;;;;;;237.20;24.30;;;;;;;3.46;62.85;97434.91;5069217;28;20060;-68
2023/02/12 00:37:31;;;;;;;105.50;22.58;;;;;;;3.83;63.10;97440.69;5065778;28;20064;-68
2023/02/12 00:39:57;;;;;;;75.05;22.35;;;;;;;3.89;62.24;97437.69;5067469;28;20040;-68
2023/02/12 00:42:22;;;;;;;79.60;22.48;;;;;;;4.07;62.58;97434.88;5067999;28;20553;-68
2023/02/12 00:44:48;;;;;;;248.70;24.00;;;;;;;4.26;60.48;97439.06;5072431;28;20078;-68
2023/02/12 00:47:15;;;;;;;275.02;28.23;;;;;;;4.40;59.91;97446.97;5071872;28;20045;-68
2023/02/12 00:49:41;;;;;;;73.57;22.38;;;;;;;4.50;60.87;97439.34;5072205;28;20089;-68
2023/02/12 00:52:06;;;;;;;51.90;22.77;;;;;;;4.38;61.36;97442.72;5072158;28;20517;-68
2023/02/12 00:54:32;;;;;;;55.83;22.35;;;;;;;4.47;60.98;97428.13;5072704;28;20051;-68
2023/02/12 00:56:57;;;;;;;191.05;24.15;;;;;;;4.72;58.16;97435.38;5072377;28;20082;-68
2023/02/12 00:59:23;;;;;;;79.13;22.13;;;;;;;4.88;59.54;97432.63;5072690;28;20378;-68
2023/02/12 01:01:49;;;;;;;79.65;22.88;;;;;;;4.41;60.32;97432.84;5072085;28;20065;-68
2023/02/12 01:04:15;;;;;;;42.17;21.42;;;;;;;4.00;59.78;97420.38;5074113;28;20487;-68
2023/02/12 01:06:40;;;;;;;82.82;21.33;;;;;;;4.39;60.25;97426.81;5074602;28;20032;-68
2023/02/12 01:09:05;;;;;;;76.10;20.73;;;;;;;4.67;59.13;97427.75;5069812;28;20486;-68
2023/02/12 01:11:31;;;;;;;107.18;23.60;;;;;;;4.25;60.21;97426.81;5072179;28;20052;-68
2023/02/12 01:13:56;;;;;;;141.13;22.70;;;;;;;4.13;59.16;97426.63;5068103;28;20063;-68
2023/02/12 01:16:22;;;;;;;151.07;22.35;;;;;;;3.98;59.74;97422.28;5069434;28;20546;-68
2023/02/12 01:18:48;;;;;;;179.80;22.70;;;;;;;4.45;58.69;97425.59;5071000;28;20106;-68
2023/02/12 01:21:21;;;;;;;127.47;21.27;;;;;;;4.61;58.58;97433.41;5066006;28;20056;-68
2023/02/12 01:23:47;;;;;;;335.30;28.85;;;;;;;4.63;57.25;97435.94;5073100;28;20032;-68
2023/02/12 01:26:12;;;;;;;157.18;23.77;;;;;;;4.41;59.87;97435.47;5069801;28;20060;-68
2023/02/12 01:28:39;;;;;;;41.15;17.98;;;;;;;3.81;59.89;97429.38;5067689;28;20577;-68
2023/02/12 01:31:11;;;;;;;39.15;14.68;;;;;;;3.33;60.63;97435.59;5068543;28;20020;-68
2023/02/12 01:33:36;;;;;;;42.00;20.25;;;;;;;2.97;61.57;97434.94;5071448;28;20074;-68
2023/02/12 01:36:02;;;;;;;43.63;19.13;;;;;;;2.66;62.76;97439.25;5074214;28;20051;-68
2023/02/12 01:38:27;;;;;;;41.72;17.85;;;;;;;2.21;64.01;97431.13;5072844;28;20077;-68
2023/02/12 01:40:53;;;;;;;38.40;17.90;;;;;;;2.13;64.90;97437.63;5068505;28;20066;-68
2023/02/12 01:43:18;;;;;;;48.20;21.33;;;;;;;2.14;64.97;97436.69;5072708;28;20058;-68
2023/02/12 01:45:45;;;;;;;134.57;23.75;;;;;;;2.61;62.94;97428.13;5067770;28;20125;-68
2023/02/12 01:48:12;;;;;;;44.05;22.38;;;;;;;2.52;64.48;97426.88;5067820;28;20428;-68
2023/02/12 01:50:37;;;;;;;49.13;21.05;;;;;;;2.37;64.10;97434.63;5069937;28;20084;-67
2023/02/12 01:53:03;;;;;;;78.25;19.27;;;;;;;2.21;64.39;97423.22;5072277;28;20083;-68
2023/02/12 01:55:29;;;;;;;56.97;18.95;;;;;;;2.22;64.82;97417.88;5067423;28;20515;-67
2023/02/12 01:57:54;;;;;;;76.05;22.02;;;;;;;2.50;63.39;97412.94;5073543;28;20066;-68
2023/02/12 02:00:21;;;;;;;214.63;24.15;;;;;;;2.80;62.96;97412.19;5052133;28;20070;-69
2023/02/12 02:02:49;;;;;;;57.88;18.88;;;;;;;2.76;63.96;97422.03;5070007;28;20038;-69
2023/02/12 02:05:16;;;;;;;61.25;20.08;;;;;;;2.89;62.18;97419.56;5067974;28;20076;-70
2023/02/12 02:07:42;;;;;;;129.82;19.85;;;;;;;2.91;62.19;97415.09;5052859;28;20050;-70
2023/02/12 02:10:08;;;;;;;54.85;21.25;;;;;;;3.01;62.27;97414.56;5072870;28;20419;-70
2023/02/12 02:15:17;;;;;;;58.30;21.23;;;;;;;3.11;62.92;97415.75;5067654;28;20569;-70
2023/02/12 02:17:57;;;;;;;152.90;22.13;;;;;;;3.63;61.09;97415.50;5067134;28;20072;-70
2023/02/12 02:20:44;;;;;;;86.30;22.52;;;;;;;3.56;62.04;97412.38;5067641;28;20972;-69
2023/02/12 02:23:28;;;;;;;81.15;21.92;;;;;;;3.95;61.03;97404.84;5076720;28;20104;-70
2023/02/12 02:26:21;;;;;;;169.80;21.77;;;;;;;3.83;58.45;97411.69;5071814;28;20361;-70
2023/02/12 02:29:21;;;;;;;144.27;21.75;;;;;;;3.90;58.55;97407.75;5053007;28;20542;-71
2023/02/12 02:32:07;;;;;;;510.17;29.33;;;;;;;3.56;58.12;97391.31;5074167;28;20553;-70
2023/02/12 02:34:37;;;;;;;85.10;21.20;;;;;;;4.01;59.93;97391.28;5071050;28;20092;-70
2023/02/12 02:37:03;;;;;;;47.47;21.30;;;;;;;3.96;59.58;97401.28;5075883;28;20126;-70
2023/02/12 02:39:28;;;;;;;39.63;21.48;;;;;;;3.71;59.33;97391.34;5070332;28;20482;-70
2023/02/12 02:41:59;;;;;;;48.47;21.13;;;;;;;3.70;59.97;97387.03;5070188;28;20073;-69
2023/02/12 02:44:32;;;;;;;47.63;22.02;;;;;;;3.32;60.02;97388.28;5068112;28;20318;-70
2023/02/12 02:46:58;;;;;;;34.90;18.17;;;;;;;3.18;60.01;97389.94;5068213;28;20300;-70
2023/02/12 02:49:26;;;;;;;36.78;15.70;;;;;;;3.15;61.05;97387.47;5060659;28;20256;-69
2023/02/12 02:51:58;;;;;;;109.05;20.45;;;;;;;3.31;60.18;97384.81;5072216;28;20390;-70
2023/02/12 02:54:32;;;;;;;39.35;18.60;;;;;;;3.05;61.34;97387.13;5076630;28;20120;-70
2023/02/12 02:57:23;;;;;;;141.75;21.15;;;;;;;3.63;60.83;97375.97;5058842;28;20465;-70
2023/02/12 02:59:51;;;;;;;53.42;21.85;;;;;;;3.90;59.52;97389.31;5053040;28;20364;-70
2023/02/12 03:02:31;;;;;;;37.75;21.13;;;;;;;3.99;60.44;97389.69;5065488;28;20100;-69
2023/02/12 03:04:58;;;;;;;32.97;19.52;;;;;;;3.78;59.90;97387.41;5060677;28;20075;-69
2023/02/12 03:07:26;;;;;;;41.17;21.17;;;;;;;3.79;59.43;97389.09;5073094;28;20075;-69
2023/02/12 03:09:58;;;;;;;36.08;20.40;;;;;;;3.57;59.62;97389.53;5061618;28;20067;-69
2023/02/12 03:12:35;;;;;;;44.42;19.02;;;;;;;3.26;60.53;97385.06;5054715;28;20055;-70
2023/02/12 03:15:14;;;;;;;39.20;18.13;;;;;;;3.42;59.56;97390.31;5084496;28;20546;-70
2023/02/12 03:17:46;;;;;;;45.70;17.52;;;;;;;3.46;59.10;97387.50;5069138;28;20098;-69
2023/02/12 03:20:16;;;;;;;37.17;19.83;;;;;;;3.34;60.27;97386.41;5054013;28;20050;-69
2023/02/12 03:22:45;;;;;;;37.47;20.90;;;;;;;3.33;60.14;97388.19;5050324;28;20396;-70
2023/02/12 03:25:13;;;;;;;37.78;21.33;;;;;;;3.24;60.41;97392.22;5069753;28;20082;-70
2023/02/12 03:27:41;;;;;;;39.20;19.75;;;;;;;3.78;58.95;97384.78;5068627;28;20577;-70
2023/02/12 03:30:07;;;;;;;51.97;22.43;;;;;;;3.74;57.46;97385.91;5060648;28;20078;-70
2023/02/12 03:32:53;;;;;;;35.08;20.70;;;;;;;3.54;60.24;97385.28;5067694;28;20134;-70
2023/02/12 03:35:34;;;;;;;34.60;19.27;;;;;;;3.41;59.39;97391.22;5071500;28;20055;-69
2023/02/12 03:38:12;;;;;;;29.98;17.70;;;;;;;3.98;57.79;97396.75;5061103;28;20638;-70
2023/02/12 03:40:40;;;;;;;32.35;18.92;;;;;;;3.65;59.05;97393.41;5068731;28;20081;-70
2023/02/12 03:43:24;;;;;;;37.67;20.60;;;;;;;3.64;58.79;97398.78;5059324;28;20407;-70
2023/02/12 03:46:03;;;;;;;35.33;19.45;;;;;;;3.52;58.77;97398.56;5070188;28;20094;-70
2023/02/12 03:48:32;;;;;;;32.75;19.00;;;;;;;3.64;59.69;97399.59;5066419;28;20088;-69
2023/02/12 03:51:01;;;;;;;45.80;22.63;;;;;;;4.05;58.16;97405.16;5071879;28;20128;-70
2023/02/12 03:53:26;;;;;;;35.55;20.40;;;;;;;4.14;58.55;97404.59;5062874;28;20081;-69
2023/02/12 03:55:54;;;;;;;31.17;17.50;;;;;;;4.50;57.89;97404.19;5066035;28;20036;-69
2023/02/12 03:58:21;;;;;;;39.25;19.05;;;;;;;4.62;57.12;97400.78;5070853;28;20419;-69
2023/02/12 04:00:47;;;;;;;38.47;19.25;;;;;;;4.78;54.84;97402.47;5070526;28;20076;-69
2023/02/12 04:03:12;;;;;;;36.47;18.52;;;;;;;4.86;56.77;97409.91;5069461;28;20092;-69
2023/02/12 04:05:38;;;;;;;37.03;16.27;;;;;;;4.95;56.37;97411.94;5068930;28;20129;-70
2023/02/12 04:08:05;;;;;;;38.53;17.73;;;;;;;5.05;55.54;97420.13;5071334;28;20146;-69
2023/02/12 04:10:37;;;;;;;25.15;16.08;;;;;;;5.19;55.88;97416.63;5064700;28;20112;-70
2023/02/12 04:13:33;;;;;;;28.58;15.85;;;;;;;5.24;54.04;97424.25;5062344;28;20090;-69
2023/02/12 04:16:14;;;;;;;28.42;16.27;;;;;;;5.24;54.11;97418.97;5067681;28;20060;-70
2023/02/12 04:18:43;;;;;;;41.65;16.13;;;;;;;5.37;54.03;97419.03;5069642;28;20565;-70
2023/02/12 04:21:26;;;;;;;55.03;21.55;;;;;;;5.36;52.28;97423.44;5056946;28;20178;-69
2023/02/12 04:24:05;;;;;;;89.95;20.35;;;;;;;5.32;53.12;97427.25;5075194;28;20038;-69
2023/02/12 04:26:48;;;;;;;32.92;15.82;;;;;;;5.39;53.82;97423.25;5073919;28;20564;-69
2023/02/12 04:29:34;;;;;;;37.50;20.20;;;;;;;5.25;54.25;97433.88;5071417;28;20413;-70
2023/02/12 04:32:05;;;;;;;36.35;15.80;;;;;;;5.45;52.29;97427.28;5071537;28;20049;-70
2023/02/12 04:35:00;;;;;;;30.65;17.05;;;;;;;5.40;52.83;97426.72;5057687;28;20052;-69
2023/02/12 04:37:30;;;;;;;42.90;17.02;;;;;;;5.38;52.49;97440.06;5042085;28;20064;-69
2023/02/12 04:39:55;;;;;;;179.45;23.88;;;;;;;5.13;51.91;97443.44;5066528;28;20064;-69
2023/02/12 04:42:21;;;;;;;70.38;20.98;;;;;;;5.17;54.28;97434.38;5064772;28;20125;-69
2023/02/12 04:44:46;;;;;;;69.82;18.15;;;;;;;5.23;52.74;97441.88;5063757;28;20092;-70
2023/02/12 04:47:12;;;;;;;72.35;20.33;;;;;;;5.28;53.97;97437.16;5066907;28;20049;-70
2023/02/12 04:49:38;;;;;;;179.00;19.10;;;;;;;5.32;52.33;97445.72;5067781;28;20058;-70
2023/02/12 04:52:03;;;;;;;84.70;17.63;;;;;;;5.34;53.45;97441.22;5074524;28;20092;-70
2023/02/12 04:54:28;;;;;;;173.32;20.83;;;;;;;5.30;52.01;97437.03;5072795;28;20104;-70
2023/02/12 04:56:54;;;;;;;95.20;18.80;;;;;;;5.31;53.41;97436.94;5074482;28;20068;-69
2023/02/12 04:59:19;;;;;;;116.88;17.45;;;;;;;5.32;52.63;97443.94;5074900;28;20039;-70
2023/02/12 05:01:45;;;;;;;97.57;21.00;;;;;;;5.29;52.03;97443.28;5074630;28;20061;-70
2023/02/12 05:04:12;;;;;;;79.82;18.42;;;;;;;5.28;52.34;97442.44;5064034;28;20701;-69
2023/02/12 05:06:38;;;;;;;86.45;20.60;;;;;;;5.39;51.96;97436.47;5077928;28;20035;-69
2023/02/12 05:09:04;;;;;;;171.02;21.42;;;;;;;5.18;51.71;97433.41;5072942;28;20483;-70
2023/02/12 05:11:29;;;;;;;143.25;20.52;;;;;;;4.76;53.28;97439.50;5065570;28;20035;-69
2023/02/12 05:13:55;;;;;;;49.83;14.55;;;;;;;4.92;52.63;97442.03;5074293;28;20404;-69
2023/02/12 05:16:20;;;;;;;248.48;21.67;;;;;;;4.61;52.73;97443.09;5071361;28;20386;-70
2023/02/12 05:18:46;;;;;;;102.30;19.67;;;;;;;4.70;53.81;97442.53;5072204;28;20484;-69
2023/02/12 05:21:11;;;;;;;73.65;15.80;;;;;;;4.76;51.72;97441.31;5073989;28;20071;-69
2023/02/12 05:23:37;;;;;;;160.75;18.70;;;;;;;4.68;52.99;97447.91;5070097;28;20507;-70
2023/02/12 05:26:05;;;;;;;101.35;18.80;;;;;;;4.49;53.28;97444.72;5071114;28;20064;-70
2023/02/12 05:28:30;;;;;;;106.43;20.63;;;;;;;4.31;53.70;97447.53;5074476;28;20101;-70
2023/02/12 05:31:00;;;;;;;44.92;14.60;;;;;;;4.61;52.88;97443.09;5071018;28;20032;-70
2023/02/12 05:33:25;;;;;;;30.58;13.82;;;;;;;4.64;53.06;97446.41;5073895;28;20079;-70
2023/02/12 05:35:51;;;;;;;56.72;16.58;;;;;;;4.67;52.57;97448.88;5074867;28;20119;-69
2023/02/12 05:38:16;;;;;;;47.70;18.45;;;;;;;4.64;53.43;97449.06;5072847;28;20078;-69
2023/02/12 05:40:42;;;;;;;31.60;16.35;;;;;;;4.78;52.96;97450.81;5074436;28;20071;-69
2023/02/12 05:43:07;;;;;;;33.03;13.98;;;;;;;4.86;52.58;97449.50;5071091;28;20024;-70
2023/02/12 05:45:33;;;;;;;30.88;16.08;;;;;;;4.92;52.17;97449.09;5070247;28;20071;-69
2023/02/12 05:47:58;;;;;;;31.05;16.45;;;;;;;4.97;52.25;97447.84;5071773;28;20118;-70
2023/02/12 05:50:24;;;;;;;20.48;12.30;;;;;;;5.12;52.02;97450.50;5069262;28;20033;-70
2023/02/12 05:52:49;;;;;;;25.05;14.60;;;;;;;5.33;51.75;97450.91;5068229;28;20375;-70
2023/02/12 05:55:15;;;;;;;19.05;12.98;;;;;;;5.43;51.49;97451.16;5072917;28;20035;-70
2023/02/12 05:57:40;;;;;;;20.50;13.57;;;;;;;5.58;50.91;97443.19;5070583;28;20598;-70
2023/02/12 06:00:06;;;;;;;19.55;12.00;;;;;;;5.54;50.53;97447.81;5073127;28;20766;-70
2023/02/12 06:02:34;;;;;;;22.80;14.43;;;;;;;5.52;50.88;97449.72;5070690;28;20032;-69
2023/02/12 06:05:00;;;;;;;18.05;11.15;;;;;;;5.51;49.69;97449.81;5072739;28;20178;-70
2023/02/12 06:07:25;;;;;;;14.50;9.75;;;;;;;5.60;49.00;97457.13;5070329;28;20039;-70
2023/02/12 06:09:51;;;;;;;15.88;10.25;;;;;;;5.70;49.01;97447.66;5069339;28;20072;-69
2023/02/12 06:12:16;;;;;;;15.35;9.93;;;;;;;5.80;48.72;97452.31;5071197;28;20031;-70
2023/02/12 06:14:41;;;;;;;13.68;9.52;;;;;;;5.88;48.34;97447.34;5073734;28;20070;-69
2023/02/12 06:17:07;;;;;;;13.80;9.10;;;;;;;5.97;47.80;97452.03;5070666;28;20089;-70
2023/02/12 06:19:32;;;;;;;14.68;10.15;;;;;;;6.04;47.93;97455.13;5070000;28;20044;-70
2023/02/12 06:21:58;;;;;;;15.75;10.85;;;;;;;6.08;47.35;97456.59;5069964;28;20067;-69
2023/02/12 06:24:23;;;;;;;13.38;9.63;;;;;;;6.13;47.12;97449.19;5071017;28;20039;-70
2023/02/12 06:26:49;;;;;;;18.63;12.02;;;;;;;6.17;47.09;97460.41;5073709;28;20038;-70
2023/02/12 06:29:15;;;;;;;17.45;11.93;;;;;;;6.02;47.77;97461.47;5069310;28;20090;-69
2023/02/12 06:31:40;;;;;;;17.80;11.05;;;;;;;5.94;47.62;97464.59;5072913;28;20461;-70
2023/02/12 06:34:07;;;;;;;17.13;11.82;;;;;;;5.83;48.12;97468.84;5070311;28;20074;-70
2023/02/12 06:36:33;;;;;;;18.80;11.73;;;;;;;5.91;48.18;97465.66;5069178;28;20068;-69
2023/02/12 06:39:01;;;;;;;15.38;9.90;;;;;;;5.92;47.67;97469.16;5068862;28;20090;-70
2023/02/12 06:41:27;;;;;;;14.00;9.77;;;;;;;6.02;47.35;97478.16;5073085;28;20055;-70
2023/02/12 06:43:52;;;;;;;14.75;10.77;;;;;;;6.08;47.32;97483.03;5070908;28;20027;-70
2023/02/12 06:46:18;;;;;;;25.08;14.00;;;;;;;6.07;48.16;97476.06;5072477;28;20087;-70
2023/02/12 06:48:43;;;;;;;22.50;14.30;;;;;;;5.92;48.42;97483.22;5070071;28;20044;-69
2023/02/12 06:51:13;;;;;;;18.45;12.20;;;;;;;5.84;48.69;97481.09;5069416;28;20241;-69
2023/02/12 06:53:39;;;;;;;27.90;16.00;;;;;;;5.63;49.21;97482.50;5069894;28;20420;-69
2023/02/12 06:56:05;;;;;;;13.85;9.65;;;;;;;5.72;47.73;97480.09;5070997;28;20035;-69
2023/02/12 06:58:31;;;;;;;13.35;9.18;;;;;;;5.96;47.68;97486.50;5072897;28;20044;-69
2023/02/12 07:00:56;;;;;;;14.65;9.65;;;;;;;6.11;47.04;97484.63;5074120;28;20093;-70
2023/02/12 07:03:22;;;;;;;12.55;8.90;;;;;;;6.24;46.25;97490.78;5057324;28;20450;-70
2023/02/12 07:05:47;;;;;;;13.77;9.45;;;;;;;6.28;45.84;97486.13;5072593;28;20047;-70
2023/02/12 07:08:14;;;;;;;13.68;9.02;;;;;;;6.32;45.68;97495.53;5071974;28;20042;-70
2023/02/12 07:10:39;;;;;;;13.48;8.90;;;;;;;6.37;46.10;97500.53;5070760;28;20052;-69
2023/02/12 07:13:04;;;;;;;14.85;9.25;;;;;;;6.41;46.02;97503.81;5065510;28;20071;-70
2023/02/12 07:15:30;;;;;;;18.55;11.57;;;;;;;6.29;46.15;97508.16;5069517;28;20043;-70
2023/02/12 07:17:55;;;;;;;14.73;9.70;;;;;;;6.17;45.94;97504.53;5050230;28;20062;-69
2023/02/12 07:20:21;;;;;;;15.90;10.65;;;;;;;6.21;46.91;97509.50;5068701;28;20113;-70
2023/02/12 07:22:46;;;;;;;11.90;8.18;;;;;;;6.23;45.50;97512.06;5072149;28;20104;-70
2023/02/12 07:25:12;;;;;;;13.95;8.88;;;;;;;6.30;45.33;97512.47;5072346;28;20458;-70
2023/02/12 07:27:37;;;;;;;13.57;8.68;;;;;;;6.41;45.55;97504.66;5068284;28;20558;-69
2023/02/12 07:30:08;;;;;;;20.17;13.20;;;;;;;6.43;46.47;97510.69;5070450;28;20449;-69
2023/02/12 07:32:33;;;;;;;13.30;9.05;;;;;;;6.40;45.70;97510.91;5069512;28;20127;-69
2023/02/12 07:34:59;;;;;;;13.32;8.88;;;;;;;6.50;45.50;97513.81;5072172;28;20037;-70
2023/02/12 07:37:24;;;;;;;12.15;8.25;;;;;;;6.63;45.37;97513.78;5071424;28;20033;-69
2023/02/12 07:39:50;;;;;;;13.80;9.57;;;;;;;6.77;45.14;97520.78;5069042;28;20172;-70
2023/02/12 07:42:15;;;;;;;14.00;9.40;;;;;;;6.86;44.36;97519.28;5066706;28;20535;-69
2023/02/12 07:44:41;;;;;;;15.82;9.70;;;;;;;6.90;44.50;97518.09;5068489;28;20078;-70
2023/02/12 07:47:06;;;;;;;13.13;8.90;;;;;;;6.94;44.65;97524.88;5074475;28;20104;-69
2023/02/12 07:49:32;;;;;;;15.55;10.02;;;;;;;7.00;44.43;97526.25;5066328;28;20062;-70
2023/02/12 07:51:57;;;;;;;13.35;8.90;;;;;;;7.06;44.07;97530.25;5069816;28;20047;-70
2023/02/12 07:54:22;;;;;;;12.30;8.88;;;;;;;7.11;44.03;97526.34;5063693;28;20043;-70
2023/02/12 07:56:48;;;;;;;13.25;8.07;;;;;;;7.18;43.64;97536.50;5070480;28;20078;-69
2023/02/12 07:59:16;;;;;;;13.27;8.57;;;;;;;7.21;43.68;97529.19;5073512;28;20104;-69
2023/02/12 08:01:44;;;;;;;11.88;7.88;;;;;;;7.25;43.11;97527.19;5070960;28;20066;-69
2023/02/12 08:04:12;;;;;;;12.50;8.25;;;;;;;7.30;43.18;97519.72;5072138;28;20031;-69
2023/02/12 08:06:39;;;;;;;11.18;7.68;;;;;;;7.35;43.11;97528.19;5065597;28;20032;-70
2023/02/12 08:09:07;;;;;;;9.85;7.00;;;;;;;7.43;42.72;97525.00;5070427;28;20171;-70
2023/02/12 08:11:32;;;;;;;11.27;7.80;;;;;;;7.56;42.84;97526.75;5049381;28;20020;-69
2023/02/12 08:13:58;;;;;;;10.73;7.72;;;;;;;7.63;42.15;97528.84;5072961;28;20093;-69
2023/02/12 08:16:24;;;;;;;10.05;7.30;;;;;;;7.73;41.98;97526.38;5068039;28;20037;-69
2023/02/12 08:18:50;;;;;;;10.48;7.63;;;;;;;7.83;41.66;97523.06;5052200;28;20854;-70
2023/02/12 08:21:23;;;;;;;10.60;7.70;;;;;;;7.91;42.02;97526.00;5070203;28;20059;-69
2023/02/12 08:23:49;;;;;;;11.27;7.57;;;;;;;8.01;41.68;97520.84;5084933;28;20017;-69
2023/02/12 08:26:31;;;;;;;11.20;8.00;;;;;;;8.11;41.79;97528.97;5073395;28;20028;-70
2023/02/12 08:28:58;;;;;;;10.85;7.70;;;;;;;8.23;41.64;97528.03;5064445;28;20405;-69
2023/02/12 08:31:28;;;;;;;10.70;7.45;;;;;;;8.30;42.35;97526.59;5064273;28;20024;-69
2023/02/12 08:33:54;;;;;;;9.63;6.93;;;;;;;8.41;41.50;97525.81;5065906;28;20037;-69
2023/02/12 08:36:21;;;;;;;10.30;7.20;;;;;;;8.47;41.52;97532.44;5070245;28;20085;-70
2023/02/12 08:38:46;;;;;;;9.75;7.28;;;;;;;8.49;41.59;97533.16;5069597;28;20028;-70
2023/02/12 08:41:14;;;;;;;9.70;7.20;;;;;;;8.60;40.90;97532.34;5066545;28;20439;-70
2023/02/12 08:43:40;;;;;;;10.20;7.00;;;;;;;8.67;40.59;97527.41;5068820;28;20028;-70
2023/02/12 08:46:16;;;;;;;8.77;6.65;;;;;;;8.70;40.34;97527.16;5067269;28;20083;-70
2023/02/12 08:48:42;;;;;;;9.50;7.07;;;;;;;8.71;39.74;97526.22;5070990;28;20391;-70
2023/02/12 08:51:18;;;;;;;8.20;5.80;;;;;;;8.71;39.68;97523.56;5068122;28;20033;-70
2023/02/12 08:53:44;;;;;;;9.18;6.43;;;;;;;8.76;40.36;97528.50;5070374;28;20546;-69
2023/02/12 08:56:10;;;;;;;8.45;6.15;;;;;;;8.86;39.94;97532.13;5068343;28;20028;-70
2023/02/12 08:58:36;;;;;;;6.50;5.18;;;;;;;9.06;39.58;97527.94;5070413;28;20309;-69
2023/02/12 09:01:02;;;;;;;7.20;5.50;;;;;;;9.33;39.53;97529.38;5069136;28;20040;-69
2023/02/12 09:03:27;;;;;;;6.18;4.85;;;;;;;9.43;42.10;97528.63;5066439;28;20028;-70
2023/02/12 09:05:53;;;;;;;6.55;5.00;;;;;;;9.69;39.53;97529.16;5075439;28;20106;-70
2023/02/12 09:08:18;;;;;;;6.82;5.20;;;;;;;9.96;39.14;97533.19;5073448;28;20739;-69
2023/02/12 09:10:44;;;;;;;7.88;5.18;;;;;;;10.13;39.90;97528.28;5073780;28;20392;-69
2023/02/12 09:13:10;;;;;;;7.57;5.57;;;;;;;10.23;38.87;97528.38;5070522;28;20041;-69
2023/02/12 09:15:39;;;;;;;8.00;5.15;;;;;;;10.25;39.14;97534.41;5069942;28;20040;-69
2023/02/12 09:18:04;;;;;;;8.32;5.57;;;;;;;10.39;38.27;97535.06;5070273;28;20032;-69
2023/02/12 09:20:30;;;;;;;8.73;5.55;;;;;;;10.51;37.85;97534.03;5075901;28;20035;-70
2023/02/12 09:22:57;;;;;;;7.28;5.03;;;;;;;10.66;37.68;97523.03;5065500;28;20024;-70
2023/02/12 09:25:23;;;;;;;7.03;5.00;;;;;;;10.80;37.11;97527.16;5065450;28;20033;-70
2023/02/12 09:27:48;;;;;;;6.28;4.55;;;;;;;11.00;37.39;97528.13;5070400;28;20354;-69
2023/02/12 09:30:14;;;;;;;8.32;4.30;;;;;;;11.17;37.96;97528.47;5073640;28;20032;-69
2023/02/12 09:32:39;;;;;;;5.20;4.10;;;;;;;11.31;36.16;97529.94;5073257;28;20071;-69
2023/02/12 09:35:05;;;;;;;6.20;4.63;;;;;;;11.44;34.79;97527.03;5072773;28;20290;-69
2023/02/12 09:37:30;;;;;;;5.53;4.07;;;;;;;11.60;36.29;97527.34;5072749;28;20347;-70
2023/02/12 09:39:56;;;;;;;6.13;4.40;;;;;;;11.83;36.62;97526.25;5072627;28;20040;-69
2023/02/12 09:42:43;;;;;;;4.75;4.05;;;;;;;11.88;35.34;97522.19;5073892;28;20187;-58
2023/02/12 09:45:17;;;;;;;4.70;3.90;;;;;;;11.85;34.24;97535.81;5071897;28;20032;-58
2023/02/12 09:47:56;;;;;;;5.10;4.10;;;;;;;11.88;36.10;97540.88;5072259;28;20051;-70
2023/02/12 09:50:32;;;;;;;4.40;3.60;;;;;;;11.99;35.88;97533.69;5071078;28;20042;-69
2023/02/12 09:52:58;;;;;;;4.85;3.60;;;;;;;12.09;36.42;97536.41;5074183;28;20032;-70
2023/02/12 09:55:26;;;;;;;4.07;3.40;;;;;;;11.95;36.02;97533.16;5055488;28;20031;-70
2023/02/12 09:57:52;;;;;;;;;;;;;;;11.84;35.57;97535.94;5057034;28;20071;-69
2023/02/12 10:00:23;;;;;;;5.30;4.00;;;;;;;11.79;33.78;97536.34;5073091;28;20458;-70
2023/02/12 10:02:50;;;;;;;4.10;3.63;;;;;;;11.68;35.09;97539.16;5072825;28;20377;-69
2023/02/12 10:05:22;;;;;;;4.78;3.60;;;;;;;11.32;35.94;97542.31;5072588;28;20553;-70
2023/02/12 10:08:08;;;;;;;3.47;3.10;;;;;;;11.62;34.35;97538.72;5071370;28;20481;-69
2023/02/12 10:11:10;;;;;;;3.83;3.42;;;;;;;11.67;33.67;97540.97;5069810;28;20041;-69
2023/02/12 10:13:55;;;;;;;3.33;3.03;;;;;;;11.73;35.12;97543.09;5073976;28;20406;-70
2023/02/12 10:16:35;;;;;;;4.30;3.40;;;;;;;11.61;35.24;97539.72;5069331;28;20035;-70
2023/02/12 10:19:18;;;;;;;4.20;3.40;;;;;;;11.62;35.24;97551.22;5071011;28;20084;-69
2023/02/12 10:21:58;;;;;;;4.68;3.13;;;;;;;11.76;34.20;97544.63;5067621;28;20048;-70
2023/02/12 10:24:42;;;;;;;4.43;3.40;;;;;;;11.80;33.58;97545.22;5075783;28;20501;-69
2023/02/12 10:27:13;;;;;;;3.50;3.17;;;;;;;11.90;33.85;97549.56;5072867;28;20034;-69
2023/02/12 10:29:41;;;;;;;3.63;3.15;;;;;;;12.05;34.70;97553.66;5045796;28;20044;-69
2023/02/12 10:32:24;;;;;;;3.28;2.97;;;;;;;11.91;33.35;97547.75;5072142;28;20507;-69
2023/02/12 10:34:50;;;;;;;3.10;2.80;;;;;;;12.08;34.31;97551.59;5072856;28;20037;-69
2023/02/12 10:37:34;;;;;;;3.72;3.10;;;;;;;12.15;36.08;97550.06;5051971;28;20512;-70
2023/02/12 10:40:05;;;;;;;3.00;2.70;;;;;;;12.26;34.62;97548.19;5072684;28;20419;-69
2023/02/12 10:42:42;;;;;;;3.10;2.80;;;;;;;12.27;33.58;97557.88;5056176;28;20549;-69
2023/02/12 10:45:23;;;;;;;4.47;3.55;;;;;;;12.21;32.37;97547.78;5050383;28;20396;-69
2023/02/12 10:47:51;;;;;;;3.45;2.90;;;;;;;12.27;33.19;97547.22;5053526;28;20020;-69
2023/02/12 10:50:25;;;;;;;3.40;3.08;;;;;;;12.25;34.27;97544.72;5060792;28;20111;-69
2023/02/12 10:52:53;;;;;;;1.80;1.70;;;;;;;11.20;37.68;97541.56;5071511;28;20413;-69
2023/02/12 10:55:31;;;;;;;3.83;2.90;;;;;;;11.08;35.64;97538.94;5069894;28;20028;-69
2023/02/12 10:57:56;;;;;;;3.13;2.70;;;;;;;11.27;35.62;97540.03;5069329;28;20355;-69
2023/02/12 11:00:29;;;;;;;3.42;2.90;;;;;;;11.44;34.71;97541.22;5067807;28;20028;-68
2023/02/12 11:03:08;;;;;;;2.47;2.28;;;;;;;11.48;35.73;97541.78;5070222;28;20754;-70
2023/02/12 11:05:34;;;;;;;2.95;2.65;;;;;;;11.41;35.41;97536.16;5055290;28;20043;-69
2023/02/12 11:08:00;;;;;;;3.45;2.90;;;;;;;11.43;36.12;97531.53;5070626;28;20588;-69
2023/02/12 11:10:30;;;;;;;8.23;5.93;;;;;;;10.17;41.18;97536.88;5067755;28;20044;-69
2023/02/12 11:12:57;;;;;;;9.70;7.30;;;;;;;10.40;40.19;97531.44;5069902;28;20048;-69
2023/02/12 11:15:24;;;;;;;9.48;6.68;;;;;;;10.17;40.48;97534.22;5069180;28;20131;-70
2023/02/12 11:17:58;;;;;;;12.53;8.13;;;;;;;10.05;42.30;97534.28;5066438;28;20080;-69
2023/02/12 11:20:27;;;;;;;7.85;5.70;;;;;;;10.14;40.93;97521.16;5071749;28;20274;-69
2023/02/12 11:22:54;;;;;;;8.25;5.80;;;;;;;9.58;38.98;97529.19;5076044;28;20043;-69
2023/02/12 11:25:19;;;;;;;8.70;6.60;;;;;;;9.23;44.04;97525.75;5067104;28;20078;-69
2023/02/12 11:27:57;;;;;;;9.55;5.82;;;;;;;9.61;43.30;97534.25;5070724;28;20269;-69
2023/02/12 11:30:22;;;;;;;10.77;6.15;;;;;;;9.67;43.17;97530.25;5053804;28;20123;-69
2023/02/12 11:32:48;;;;;;;8.32;5.70;;;;;;;9.26;43.48;97524.66;5066709;28;20126;-69
2023/02/12 11:35:25;;;;;;;7.57;5.43;;;;;;;9.38;43.23;97523.66;5071871;28;20028;-70
2023/02/12 11:37:54;;;;;;;8.75;5.70;;;;;;;9.15;44.15;97520.22;5067863;28;20045;-69
2023/02/12 11:40:37;;;;;;;8.25;5.28;;;;;;;9.11;44.12;97519.59;5069559;28;20035;-69